Time;durP1;ratioP1;P1;durP2;ratioP2;P2;SDS_P1;SDS_P2;PMS_P1;PMS_P2;Temp;Humidity;BMP_temperature;BMP_pressure;BME280_temperature;BME280_humidity;BME280_pressure;Samples;Min_cycle;Max_cycle;Signal;HPM_P1;HPM_P2
2022/01/19 00:00:23;;;;;;;50.22;23.95;;;6.40;77.80;;;;;;4751992;24;20066;-78
2022/01/19 00:03:45;;;;;;;50.47;24.05;;;6.40;77.80;;;;;;5057429;24;20050;-77
2022/01/19 00:07:15;;;;;;;54.88;25.48;;;6.30;77.80;;;;;;4983801;24;20494;-78
2022/01/19 00:10:51;;;;;;;;;;;;;;;;;;;;;
2022/01/19 00:13:39;;;;;;;49.50;23.95;;;6.30;77.70;;;;;;4997449;24;20384;-78
2022/01/19 00:16:50;;;;;;;48.83;23.60;;;6.70;78.00;;;;;;4978495;24;20059;-77
2022/01/19 00:23:32;;;;;;;59.92;24.88;;;6.30;77.80;;;;;;5172475;24;20317;-78
2022/01/19 00:27:06;;;;;;;55.60;25.13;;;6.30;77.90;;;;;;5012697;24;20025;-77
2022/01/19 00:30:14;;;;;;;60.50;27.15;;;6.30;77.90;;;;;;5058118;24;20155;-78
2022/01/19 00:33:02;;;;;;;60.45;27.20;;;6.80;78.20;;;;;;4920688;24;20075;-78
2022/01/19 00:36:16;;;;;;;60.42;26.70;;;6.50;78.00;;;;;;4966352;24;20078;-78
2022/01/19 00:39:56;;;;;;;52.65;25.88;;;6.40;77.90;;;;;;5125159;24;20060;31
2022/01/19 00:43:11;;;;;;;59.92;26.20;;;6.60;78.00;;;;;;4889214;24;21049;-78
2022/01/19 00:46:18;;;;;;;57.92;26.67;;;6.40;77.90;;;;;;5189651;24;20038;-78
2022/01/19 00:49:35;;;;;;;58.13;25.85;;;6.60;78.10;;;;;;5012059;24;20142;-78
2022/01/19 00:52:12;;;;;;;56.53;26.90;;;6.50;78.00;;;;;;5052791;24;20527;-78
2022/01/19 00:54:46;;;;;;;62.67;27.73;;;6.70;78.20;;;;;;4905845;24;20068;-77
2022/01/19 00:57:19;;;;;;;58.53;27.48;;;6.40;78.00;;;;;;5251563;24;20054;-77
2022/01/19 01:06:18;;;;;;;62.20;26.85;;;6.40;77.80;;;;;;4817053;29;20066;-77
2022/01/19 01:09:09;;;;;;;48.15;24.58;;;6.40;77.80;;;;;;4984181;24;20062;-78
2022/01/19 01:12:13;;;;;;;53.42;25.05;;;6.60;77.90;;;;;;4883110;24;20064;-78
2022/01/19 01:21:40;;;;;;;52.35;23.08;;;6.60;77.80;;;;;;4872803;24;20574;31
2022/01/19 01:28:22;;;;;;;51.72;25.27;;;6.40;77.60;;;;;;5082260;24;20050;-77
2022/01/19 01:31:35;;;;;;;59.83;25.85;;;6.70;77.80;;;;;;4831477;24;20101;-77
2022/01/19 01:44:08;;;;;;;;;;;;;;;;;;;;;
2022/01/19 01:47:40;;;;;;;59.95;27.25;;;6.50;77.70;;;;;;4976408;24;20706;-78
2022/01/19 01:54:19;;;;;;;49.47;24.33;;;6.30;77.40;;;;;;5090354;24;20401;-78
2022/01/19 01:57:19;;;;;;;47.95;22.90;;;6.60;77.60;;;;;;5000888;24;20455;-78
2022/01/19 02:07:44;;;;;;;53.15;26.48;;;6.70;78.20;;;;;;4884238;24;20508;-78
2022/01/19 02:24:12;;;;;;;47.20;23.67;;;6.20;77.60;;;;;;5000178;24;20049;-78
2022/01/19 02:49:57;;;;;;;47.15;21.92;;;6.40;77.70;;;;;;4914673;24;20050;-77
2022/01/19 03:09:25;;;;;;;33.42;19.65;;;6.10;77.90;;;;;;4277809;24;20066;-78
2022/01/19 03:12:21;;;;;;;32.33;19.48;;;6.60;77.70;;;;;;4892841;24;20510;-77
2022/01/19 03:18:39;;;;;;;32.05;19.50;;;6.10;77.20;;;;;;4968842;24;20073;-78
2022/01/19 03:21:37;;;;;;;;;;;;;;;;;;;;;
2022/01/19 03:31:28;;;;;;;40.35;20.95;;;6.50;77.20;;;;;;4861340;24;20487;-78
2022/01/19 03:41:53;;;;;;;31.63;19.95;;;6.00;76.60;;;;;;5026717;24;20061;-76
2022/01/19 03:44:49;;;;;;;32.22;20.08;;;5.80;76.60;;;;;;4922091;24;20137;-76
2022/01/19 03:51:29;;;;;;;33.63;20.63;;;5.80;76.70;;;;;;5122233;24;20059;-77
2022/01/19 03:57:26;;;;;;;35.75;19.92;;;5.70;76.80;;;;;;4936877;24;20046;-78
2022/01/19 04:00:00;;;;;;;32.72;20.08;;;5.90;77.00;;;;;;4867092;24;20498;-77
2022/01/19 04:02:40;;;;;;;31.77;20.60;;;5.80;77.10;;;;;;4988686;24;20024;-78
2022/01/19 04:08:49;;;;;;;33.95;21.23;;;5.90;77.30;;;;;;5193202;24;20102;-78
2022/01/19 04:19:10;;;;;;;30.95;19.10;;;5.50;76.90;;;;;;5295644;24;19924;31
2022/01/19 04:22:25;;;;;;;;;;;;;;;;;;;;;
2022/01/19 04:29:38;;;;;;;35.03;21.38;;;5.70;77.40;;;;;;5177646;24;20029;-77
2022/01/19 04:36:25;;;;;;;38.00;21.70;;;5.70;77.50;;;;;;4820500;24;20065;-78
2022/01/19 05:16:49;;;;;;;31.40;21.73;;;5.70;77.50;;;;;;5124290;24;20025;-79
2022/01/19 05:24:31;;;;;;;35.50;21.63;;;5.70;77.50;;;;;;5056759;24;20112;-79
2022/01/19 05:30:53;;;;;;;31.40;20.17;;;5.70;77.50;;;;;;4976230;24;20029;31
2022/01/19 05:33:47;;;;;;;34.17;21.98;;;5.70;77.50;;;;;;4880547;24;20119;-78
2022/01/19 05:36:36;;;;;;;33.75;21.77;;;6.10;77.80;;;;;;5030782;23;20080;-78
2022/01/19 05:46:26;;;;;;;32.55;20.92;;;5.70;77.40;;;;;;5022149;24;20436;-79
2022/01/19 05:53:03;;;;;;;35.05;20.77;;;5.70;77.40;;;;;;4942979;24;20053;-79
2022/01/19 05:59:12;;;;;;;32.33;20.58;;;5.60;77.40;;;;;;4834851;24;20062;-79
2022/01/19 06:01:52;;;;;;;32.30;21.17;;;5.70;77.40;;;;;;4948259;24;20197;-79
2022/01/19 06:04:46;;;;;;;32.40;20.98;;;5.70;77.40;;;;;;4967016;24;20057;-79
2022/01/19 06:14:18;;;;;;;33.88;20.83;;;5.70;77.30;;;;;;5077339;24;20060;-79
2022/01/19 06:17:14;;;;;;;34.70;21.45;;;5.70;77.30;;;;;;4879164;24;20061;-79
2022/01/19 06:23:34;;;;;;;32.95;19.63;;;5.70;77.30;;;;;;4830132;29;20065;-79
2022/01/19 06:26:54;;;;;;;32.80;20.60;;;5.50;77.30;;;;;;5117906;23;20092;-80
2022/01/19 06:33:32;;;;;;;32.97;21.75;;;5.90;77.50;;;;;;5071029;24;20057;-79
2022/01/19 06:36:53;;;;;;;31.10;20.05;;;5.70;77.40;;;;;;4953830;24;20089;-78
2022/01/19 06:39:57;;;;;;;37.33;21.45;;;5.80;77.40;;;;;;4850147;24;20033;-79
2022/01/19 06:43:19;;;;;;;39.90;23.05;;;5.80;77.30;;;;;;4883145;24;20097;-79
2022/01/19 06:48:59;;;;;;;32.03;20.23;;;5.80;77.40;;;;;;4629648;24;20058;-79
2022/01/19 06:51:35;;;;;;;36.50;21.38;;;5.80;77.30;;;;;;4931005;24;20399;31
2022/01/19 06:54:58;;;;;;;32.30;21.42;;;6.10;77.50;;;;;;4839963;24;20051;-79
2022/01/19 06:58:01;;;;;;;29.83;19.33;;;5.70;77.00;;;;;;5000149;24;20085;-79
2022/01/19 07:00:35;;;;;;;33.90;21.27;;;5.80;77.20;;;;;;4880237;24;20047;-79
2022/01/19 07:03:42;;;;;;;;;;;5.70;77.10;;;;;;4884594;24;20050;-79
2022/01/19 07:24:18;;;;;;;;;;;;;;;;;;;;;
2022/01/19 07:40:25;;;;;;;33.20;20.75;;;5.70;77.20;;;;;;6253028;22;20078;-79
2022/01/19 07:43:38;;;;;;;38.40;22.13;;;5.60;77.10;;;;;;6260585;22;20379;-79
2022/01/19 07:47:29;;;;;;;;;;;;;;;;;;;;;
2022/01/19 07:50:56;;;;;;;;;;;;;;;;;;;;;
2022/01/19 07:53:52;;;;;;;42.00;24.92;;;6.00;77.40;;;;;;6297454;22;20053;-80
2022/01/19 07:57:10;;;;;;;41.63;23.55;;;5.60;77.20;;;;;;6236275;22;20181;-78
2022/01/19 08:03:14;;;;;;;39.33;24.15;;;5.70;77.30;;;;;;6290235;22;20950;-79
2022/01/19 08:08:49;;;;;;;45.58;26.17;;;5.70;77.30;;;;;;6314964;22;20241;31
2022/01/19 08:18:25;;;;;;;46.13;26.27;;;5.70;77.20;;;;;;6264593;22;20023;-80
2022/01/19 08:21:38;;;;;;;44.20;25.35;;;5.70;77.20;;;;;;6264997;22;20444;-80
2022/01/19 08:31:54;;;;;;;40.93;23.70;;;6.10;77.20;;;;;;6275661;22;20022;-80
2022/01/19 08:34:43;;;;;;;39.25;22.60;;;5.60;77.00;;;;;;6257428;22;20047;-80
2022/01/19 08:37:46;;;;;;;40.53;25.08;;;6.10;77.30;;;;;;6268852;22;20027;-80
2022/01/19 08:40:54;;;;;;;46.63;27.50;;;5.90;77.10;;;;;;6273531;22;20374;-80
2022/01/19 08:44:36;;;;;;;46.22;27.88;;;5.50;76.90;;;;;;6265401;22;20023;-81
2022/01/19 08:47:59;;;;;;;48.25;28.15;;;5.70;76.90;;;;;;6170492;22;20023;31
2022/01/19 08:51:31;;;;;;;;;;;;;;;;;;;;;
2022/01/19 09:06:38;;;;;;;41.80;25.60;;;5.40;77.00;;;;;;6251396;22;20027;-80
2022/01/19 09:13:44;;;;;;;44.15;26.15;;;5.70;77.20;;;;;;6243407;22;21147;31
2022/01/19 09:17:01;;;;;;;42.45;25.60;;;5.70;77.20;;;;;;6265680;22;20027;31
2022/01/19 09:23:07;;;;;;;;;;;;;;;;;;;;;
2022/01/19 09:32:08;;;;;;;47.00;25.17;;;5.80;77.20;;;;;;6257262;22;20099;31
2022/01/19 09:38:33;;;;;;;43.22;27.20;;;5.80;77.20;;;;;;6255836;22;20022;-80
2022/01/19 09:48:36;;;;;;;43.22;26.98;;;5.80;77.20;;;;;;6256466;22;20027;-79
2022/01/19 10:00:17;;;;;;;47.40;27.02;;;5.80;77.10;;;;;;6294075;22;20114;-80
2022/01/19 10:26:10;;;;;;;47.15;29.40;;;5.90;77.10;;;;;;6248452;22;20435;-79
2022/01/19 10:32:59;;;;;;;46.33;29.02;;;6.00;77.20;;;;;;6291689;22;20887;-79
2022/01/19 10:39:48;;;;;;;49.13;30.83;;;6.00;77.20;;;;;;6261383;22;20061;-79
2022/01/19 10:42:56;;;;;;;48.17;29.15;;;6.00;77.20;;;;;;6255098;22;20023;-79
2022/01/19 10:45:37;;;;;;;43.70;29.35;;;6.10;77.30;;;;;;6239336;22;20028;-80
2022/01/19 10:51:13;;;;;;;52.53;30.90;;;6.10;77.20;;;;;;6263801;22;20081;-80
2022/01/19 10:57:29;;;;;;;52.55;31.63;;;6.10;77.10;;;;;;6273794;22;20708;-79
2022/01/19 11:03:48;;;;;;;51.95;31.40;;;6.20;77.10;;;;;;6250184;22;21479;-80
2022/01/19 11:24:01;;;;;;;61.67;35.65;;;6.20;77.00;;;;;;6263581;22;20127;-80
2022/01/19 11:33:23;;;;;;;62.85;35.45;;;6.20;76.90;;;;;;6260348;22;20031;-80
2022/01/19 11:43:46;;;;;;;58.33;34.22;;;6.30;77.10;;;;;;6281952;22;20027;-81
2022/01/19 11:47:11;;;;;;;65.82;38.30;;;6.30;77.20;;;;;;6314793;22;20048;-79
2022/01/19 11:50:34;;;;;;;61.70;36.67;;;6.30;77.30;;;;;;6255046;22;20034;-79
2022/01/19 11:53:18;;;;;;;62.15;36.97;;;6.10;77.20;;;;;;6273164;22;20028;-80
2022/01/19 12:09:25;;;;;;;66.70;37.53;;;6.30;77.20;;;;;;6286224;22;20023;-80
2022/01/19 12:19:33;;;;;;;62.97;36.40;;;6.40;77.20;;;;;;6275788;22;21517;-81
2022/01/19 12:36:44;;;;;;;;;;;;;;;;;;;;;
2022/01/19 12:39:58;;;;;;;62.90;37.40;;;6.40;77.00;;;;;;6276329;22;20031;-79
2022/01/19 12:49:52;;;;;;;;;;;;;;;;;;;;;
2022/01/19 13:00:21;;;;;;;58.38;36.47;;;6.40;76.80;;;;;;6278338;22;20008;31
2022/01/19 13:03:45;;;;;;;67.32;37.60;;;6.40;76.90;;;;;;6279231;22;20057;31
2022/01/19 13:47:51;;;;;;;54.20;31.88;;;6.50;76.70;;;;;;6287130;22;20077;-88
2022/01/19 13:51:15;;;;;;;;;;;;;;;;;;;;;
2022/01/19 13:57:44;;;;;;;53.13;32.08;;;6.50;76.90;;;;;;6291169;22;20011;31
2022/01/19 14:07:45;;;;;;;51.28;30.90;;;6.50;76.80;;;;;;6225297;22;20010;-90
2022/01/19 14:10:11;;;;;;;49.00;29.67;;;6.50;76.90;;;;;;6247481;22;20059;-88
2022/01/19 14:12:37;;;;;;;53.22;31.50;;;6.50;77.00;;;;;;6277634;22;20019;-90
2022/01/19 14:15:05;;;;;;;49.22;30.98;;;6.50;77.50;;;;;;6252055;22;20015;-89
2022/01/19 14:17:37;;;;;;;50.53;31.35;;;6.50;77.20;;;;;;6275923;22;20030;-89
2022/01/19 14:20:13;;;;;;;51.42;30.13;;;6.90;77.50;;;;;;6275717;22;20054;-88
2022/01/19 14:22:38;;;;;;;45.55;30.48;;;6.50;77.30;;;;;;6249755;22;20023;-88
2022/01/19 14:25:07;;;;;;;49.95;28.90;;;6.50;77.30;;;;;;6249619;22;20015;-87
2022/01/19 14:27:48;;;;;;;52.35;29.98;;;6.50;77.40;;;;;;6274633;22;20015;-88
2022/01/19 14:30:17;;;;;;;47.17;30.05;;;6.80;77.70;;;;;;6248783;22;20422;-87
2022/01/19 14:33:10;;;;;;;51.58;30.33;;;6.50;77.60;;;;;;6277289;22;20042;-88
2022/01/19 14:35:41;;;;;;;49.08;30.02;;;6.50;77.60;;;;;;6279350;22;20015;-87
2022/01/19 14:38:28;;;;;;;54.78;32.35;;;6.50;77.70;;;;;;6252210;22;20019;-86
2022/01/19 14:41:22;;;;;;;54.13;30.42;;;6.50;77.80;;;;;;6277388;22;20046;-88
2022/01/19 14:43:57;;;;;;;51.17;28.80;;;6.50;77.80;;;;;;6277840;22;20103;-88
2022/01/19 14:46:55;;;;;;;48.88;28.55;;;6.50;77.90;;;;;;6253510;22;20019;-87
2022/01/19 14:49:28;;;;;;;46.85;28.10;;;6.30;77.90;;;;;;6252690;22;20016;-88
2022/01/19 14:51:54;;;;;;;46.35;27.60;;;6.80;78.20;;;;;;6278148;22;20335;-87
2022/01/19 14:54:20;;;;;;;45.65;27.13;;;6.80;78.20;;;;;;6279382;22;20024;-87
2022/01/19 14:56:46;;;;;;;48.33;28.40;;;6.60;78.10;;;;;;6276600;22;20020;-87
2022/01/19 14:59:19;;;;;;;59.10;37.17;;;6.50;78.20;;;;;;6276784;22;20259;-87
2022/01/19 15:01:55;;;;;;;56.75;36.55;;;6.50;78.30;;;;;;6276973;22;20019;-89
2022/01/19 15:04:21;;;;;;;48.92;31.50;;;6.70;78.60;;;;;;6252782;22;20347;-87
2022/01/19 15:06:48;;;;;;;53.60;30.83;;;6.40;78.40;;;;;;6255121;22;20304;-89
2022/01/19 15:09:15;;;;;;;53.75;30.35;;;6.70;78.60;;;;;;6275503;22;20454;-79
2022/01/19 15:11:42;;;;;;;49.70;28.63;;;6.50;78.60;;;;;;6276397;22;20406;-79
2022/01/19 15:14:09;;;;;;;52.38;29.65;;;6.70;78.80;;;;;;6276368;22;20051;-79
2022/01/19 15:16:36;;;;;;;50.03;29.30;;;6.50;78.70;;;;;;6274577;22;20012;-78
2022/01/19 15:19:03;;;;;;;48.22;28.90;;;6.50;78.70;;;;;;6276242;22;20340;-78
2022/01/19 15:21:29;;;;;;;44.50;25.30;;;6.50;78.80;;;;;;6290355;22;20041;-78
2022/01/19 15:23:54;;;;;;;45.75;27.55;;;6.50;78.90;;;;;;6285295;22;20066;-79
2022/01/19 15:26:20;;;;;;;42.42;27.10;;;6.50;78.90;;;;;;6284732;22;20355;-79
2022/01/19 15:28:48;;;;;;;43.72;25.92;;;6.70;79.20;;;;;;6277038;22;20071;-78
2022/01/19 15:31:14;;;;;;;39.30;24.77;;;6.50;79.10;;;;;;6277425;22;20023;-79
2022/01/19 15:33:41;;;;;;;43.55;24.48;;;6.50;79.20;;;;;;6276905;22;20439;-80
2022/01/19 15:36:08;;;;;;;39.10;23.23;;;6.60;79.30;;;;;;6280705;22;20015;-79
2022/01/19 15:38:43;;;;;;;36.13;21.52;;;6.50;79.40;;;;;;6251707;22;20019;-78
2022/01/19 15:41:08;;;;;;;32.53;21.10;;;6.50;79.40;;;;;;6279605;22;20020;-77
2022/01/19 15:43:34;;;;;;;35.22;20.40;;;6.50;79.40;;;;;;6278594;22;20012;-78
2022/01/19 15:46:01;;;;;;;34.00;19.40;;;6.60;79.60;;;;;;6277413;22;20022;-79
2022/01/19 15:48:27;;;;;;;33.42;20.77;;;6.60;79.60;;;;;;6277669;22;20051;-78
2022/01/19 15:50:55;;;;;;;36.78;20.27;;;6.60;79.70;;;;;;6278913;22;20020;-78
2022/01/19 15:53:23;;;;;;;36.17;20.40;;;6.60;79.90;;;;;;6279014;22;20420;-78
2022/01/19 15:55:51;;;;;;;32.92;19.50;;;6.60;79.90;;;;;;6276293;22;20078;-77
2022/01/19 15:58:18;;;;;;;29.70;17.80;;;6.60;80.00;;;;;;6276899;22;20061;-78
2022/01/19 16:00:45;;;;;;;34.97;18.55;;;6.60;80.10;;;;;;6275235;22;20038;-78
2022/01/19 16:03:11;;;;;;;29.48;18.20;;;6.70;80.10;;;;;;6271320;22;20062;-78
2022/01/19 16:05:38;;;;;;;29.27;16.98;;;6.70;80.20;;;;;;6273885;22;20016;-78
2022/01/19 16:08:05;;;;;;;29.70;16.85;;;6.70;80.20;;;;;;6297356;22;20019;-77
2022/01/19 16:10:32;;;;;;;30.00;14.32;;;6.70;80.20;;;;;;6271732;22;20342;-78
2022/01/19 16:12:58;;;;;;;32.85;14.07;;;6.70;80.30;;;;;;6273833;22;20069;-78
2022/01/19 16:15:25;;;;;;;25.88;14.18;;;6.70;80.40;;;;;;6271493;22;20026;-78
2022/01/19 16:17:51;;;;;;;25.88;13.93;;;6.70;80.50;;;;;;6274331;22;20027;-79
2022/01/19 16:20:18;;;;;;;30.60;13.30;;;6.70;80.50;;;;;;6270656;22;20478;-79
2022/01/19 16:28:13;;;;;;;28.67;10.75;;;6.80;80.70;;;;;;6271854;22;20106;-78
2022/01/19 16:30:40;;;;;;;30.10;10.27;;;6.90;80.90;;;;;;6273337;22;20050;-78
2022/01/19 16:33:09;;;;;;;32.20;11.07;;;6.90;80.90;;;;;;6270772;22;20027;-79
2022/01/19 16:35:36;;;;;;;33.03;10.43;;;6.90;80.90;;;;;;6271666;22;20053;-78
2022/01/19 16:38:02;;;;;;;27.30;9.13;;;7.00;81.10;;;;;;6272830;22;20020;-78
2022/01/19 16:40:29;;;;;;;31.83;8.50;;;7.00;81.10;;;;;;6276529;22;20081;-77
2022/01/19 16:42:56;;;;;;;29.02;8.93;;;7.00;81.20;;;;;;6278170;22;20020;-77
2022/01/19 16:45:23;;;;;;;24.52;7.05;;;7.00;81.20;;;;;;6274912;22;20086;-77
2022/01/19 16:47:54;;;;;;;23.77;7.97;;;7.30;81.40;;;;;;6276727;22;20026;-78
2022/01/19 16:50:21;;;;;;;21.85;5.55;;;7.10;81.30;;;;;;6274759;22;20016;-79
2022/01/19 16:52:47;;;;;;;23.23;5.88;;;7.10;81.40;;;;;;6276621;22;20015;-78
2022/01/19 16:55:13;;;;;;;23.77;5.43;;;7.10;81.30;;;;;;6275162;22;20104;-78
2022/01/19 16:57:39;;;;;;;19.73;5.40;;;7.10;81.30;;;;;;6278174;22;20026;-79
2022/01/19 17:00:07;;;;;;;19.65;4.88;;;7.10;81.30;;;;;;6278147;22;20016;-78
2022/01/19 17:02:33;;;;;;;21.17;4.47;;;7.10;81.30;;;;;;6275637;22;20051;-78
2022/01/19 17:04:59;;;;;;;18.73;4.15;;;7.10;81.20;;;;;;6300385;22;20020;-78
2022/01/19 17:07:24;;;;;;;21.33;5.32;;;7.10;81.10;;;;;;6277833;22;20046;-77
2022/01/19 17:09:50;;;;;;;17.98;4.28;;;7.10;81.00;;;;;;6275842;22;20027;-79
2022/01/19 17:12:20;;;;;;;20.95;4.30;;;7.40;81.00;;;;;;6278002;22;20064;-78
2022/01/19 17:14:46;;;;;;;26.63;4.75;;;7.10;80.70;;;;;;6278473;22;20015;-78
2022/01/19 17:17:15;;;;;;;19.48;3.97;;;7.10;80.60;;;;;;6275949;22;20114;-78
2022/01/19 17:19:42;;;;;;;24.08;4.38;;;7.10;80.50;;;;;;6274269;22;20008;-78
2022/01/19 17:22:14;;;;;;;24.98;4.35;;;7.10;80.40;;;;;;6275352;22;20019;-78
2022/01/19 17:24:40;;;;;;;23.70;3.75;;;7.10;80.20;;;;;;6271663;22;20027;-77
2022/01/19 17:27:08;;;;;;;20.77;4.32;;;7.10;80.10;;;;;;6273908;22;20069;-78
2022/01/19 17:29:35;;;;;;;25.40;6.15;;;7.10;80.00;;;;;;6246055;22;20020;-77
2022/01/19 17:32:01;;;;;;;20.50;5.13;;;7.10;79.80;;;;;;6273265;22;20509;-77
2022/01/19 17:34:27;;;;;;;21.02;4.95;;;7.30;79.80;;;;;;6274231;22;20087;-77
2022/01/19 17:36:53;;;;;;;18.92;3.85;;;7.10;79.60;;;;;;6273284;22;20383;-79
2022/01/19 17:39:20;;;;;;;24.67;4.63;;;7.00;79.50;;;;;;6246229;22;20016;-77
2022/01/19 17:41:46;;;;;;;19.20;4.25;;;7.00;79.50;;;;;;6249968;22;20023;-77
2022/01/19 17:44:12;;;;;;;17.38;4.32;;;7.00;79.40;;;;;;6276113;22;20011;-77
2022/01/19 17:49:20;;;;;;;24.85;4.18;;;7.00;79.30;;;;;;6274604;22;20026;-76
2022/01/19 17:51:47;;;;;;;22.02;3.80;;;7.00;79.20;;;;;;6277025;22;20019;-76
2022/01/19 17:54:13;;;;;;;21.00;4.13;;;7.00;79.10;;;;;;6277200;22;20101;-77
2022/01/19 17:56:39;;;;;;;20.83;3.83;;;6.90;79.10;;;;;;6276025;22;20019;-76
2022/01/19 17:59:08;;;;;;;21.25;4.90;;;7.30;79.30;;;;;;6275800;22;20042;-76
2022/01/19 18:01:34;;;;;;;22.75;3.88;;;6.90;79.10;;;;;;6275056;22;20019;-76
2022/01/19 18:04:01;;;;;;;17.15;3.63;;;6.90;79.00;;;;;;6277374;22;20081;-76
2022/01/19 18:06:27;;;;;;;25.70;3.78;;;6.90;79.00;;;;;;6274751;22;20457;-76
2022/01/19 18:08:54;;;;;;;20.15;3.75;;;6.90;79.10;;;;;;6272914;22;20502;-76
2022/01/19 18:11:27;;;;;;;29.58;4.07;;;7.10;79.20;;;;;;6246153;23;20020;-76
2022/01/19 18:13:55;;;;;;;26.33;4.55;;;6.90;79.10;;;;;;6246744;23;20095;-76
2022/01/19 18:16:21;;;;;;;31.92;5.80;;;6.80;79.10;;;;;;6218702;23;20047;-76
2022/01/19 18:18:47;;;;;;;27.58;5.70;;;6.90;79.10;;;;;;6247169;23;20075;-76
2022/01/19 18:21:14;;;;;;;28.13;5.25;;;6.80;79.00;;;;;;6245831;23;20016;-76
2022/01/19 18:23:40;;;;;;;21.75;4.20;;;6.80;79.00;;;;;;6218259;23;20023;-76
2022/01/19 18:26:06;;;;;;;32.05;5.30;;;6.80;79.00;;;;;;6218882;23;20466;-76
2022/01/19 18:28:32;;;;;;;26.25;5.10;;;6.80;78.90;;;;;;6246488;23;20328;-77
2022/01/19 18:30:59;;;;;;;27.27;5.47;;;6.80;78.80;;;;;;6217783;23;20027;-77
2022/01/19 18:33:25;;;;;;;31.17;6.07;;;6.80;78.70;;;;;;6218583;23;20828;-77
2022/01/19 18:35:51;;;;;;;21.63;5.00;;;6.80;78.70;;;;;;6245566;23;20012;-77
2022/01/19 18:38:22;;;;;;;38.15;6.70;;;6.80;78.60;;;;;;6217111;23;20020;-77
2022/01/19 18:40:48;;;;;;;44.47;5.95;;;6.80;78.50;;;;;;6246049;23;20493;-77
2022/01/19 18:43:13;;;;;;;27.92;5.07;;;6.70;78.30;;;;;;6241879;23;20020;-78
2022/01/19 18:45:39;;;;;;;52.38;17.30;;;6.90;78.20;;;;;;6241893;23;20047;-79
2022/01/19 18:48:05;;;;;;;31.33;7.80;;;6.80;78.00;;;;;;6241096;23;20028;-79
2022/01/19 18:50:31;;;;;;;36.38;7.57;;;6.70;77.80;;;;;;6242095;23;20128;-79
2022/01/19 18:52:57;;;;;;;30.23;6.22;;;6.70;77.60;;;;;;6213309;23;20031;-79
2022/01/19 18:55:24;;;;;;;30.67;7.18;;;6.70;77.50;;;;;;6213296;23;20016;-80
2022/01/19 18:57:50;;;;;;;40.03;8.57;;;6.70;77.30;;;;;;6213246;23;20117;-79
2022/01/19 19:00:18;;;;;;;35.78;6.82;;;6.60;77.20;;;;;;6214592;23;20015;-78
2022/01/19 19:02:47;;;;;;;35.38;8.55;;;6.60;77.10;;;;;;6241322;23;20062;-78
2022/01/19 19:05:20;;;;;;;30.40;6.53;;;6.60;77.00;;;;;;6212575;23;20024;-78
2022/01/19 19:07:46;;;;;;;37.20;7.03;;;6.60;77.10;;;;;;6240996;22;20031;-79
2022/01/19 19:10:24;;;;;;;33.40;6.18;;;6.90;77.30;;;;;;6232878;22;20478;-77
2022/01/19 19:12:51;;;;;;;31.48;6.32;;;6.50;77.00;;;;;;6244361;22;20103;-77
2022/01/19 19:15:18;;;;;;;36.50;7.43;;;6.50;77.00;;;;;;6272159;22;20027;-77
2022/01/19 19:17:45;;;;;;;31.38;6.25;;;6.60;77.10;;;;;;6243394;22;20051;-77
2022/01/19 19:20:12;;;;;;;28.63;6.00;;;6.50;77.00;;;;;;6270956;22;20548;-77
2022/01/19 19:22:44;;;;;;;27.58;5.38;;;6.50;77.00;;;;;;6272458;22;20439;-76
2022/01/19 19:25:15;;;;;;;24.02;5.13;;;6.50;77.00;;;;;;6242462;22;20111;-77
2022/01/19 19:27:43;;;;;;;28.27;5.60;;;6.50;76.90;;;;;;6272030;22;20591;-77
2022/01/19 19:30:11;;;;;;;33.70;6.65;;;6.50;76.90;;;;;;6273029;22;20055;-77
2022/01/19 19:32:37;;;;;;;23.65;5.13;;;6.50;76.90;;;;;;6270539;22;20020;-77
2022/01/19 19:35:07;;;;;;;27.27;4.95;;;6.50;76.90;;;;;;6245703;22;20019;-76
2022/01/19 19:37:32;;;;;;;23.95;3.85;;;6.50;76.80;;;;;;6271340;22;20016;-76
2022/01/19 19:39:59;;;;;;;14.40;3.35;;;6.50;76.70;;;;;;6271759;22;20012;-77
2022/01/19 19:42:25;;;;;;;25.75;3.80;;;6.50;76.70;;;;;;6271908;22;20024;-77
2022/01/19 19:44:50;;;;;;;15.25;3.08;;;6.50;76.50;;;;;;6243346;22;20024;-76
2022/01/19 19:47:16;;;;;;;18.95;4.22;;;6.50;76.30;;;;;;6271344;22;20458;-77
2022/01/19 19:49:42;;;;;;;11.35;2.28;;;6.40;76.10;;;;;;6272428;22;20019;-77
2022/01/19 19:52:07;;;;;;;16.85;4.30;;;6.50;76.10;;;;;;6272001;22;20051;-77
2022/01/19 19:54:33;;;;;;;24.35;4.20;;;6.40;75.90;;;;;;6270624;22;20027;-77
2022/01/19 19:56:59;;;;;;;18.80;3.78;;;6.40;75.80;;;;;;6244197;22;20051;-76
2022/01/19 19:59:24;;;;;;;21.85;4.22;;;6.50;75.80;;;;;;6240788;22;20118;-77
2022/01/19 20:01:51;;;;;;;10.32;3.10;;;6.40;75.60;;;;;;6271413;22;20020;-77
2022/01/19 20:04:17;;;;;;;13.57;2.22;;;6.30;75.40;;;;;;6243920;22;20027;-77
2022/01/19 20:06:43;;;;;;;15.75;3.78;;;6.30;75.20;;;;;;6268195;22;20027;-76
2022/01/19 20:09:09;;;;;;;16.00;2.90;;;6.30;75.00;;;;;;6270438;22;20019;-77
2022/01/19 20:11:39;;;;;;;12.52;2.90;;;6.30;75.00;;;;;;6271954;22;20028;-77
2022/01/19 20:14:06;;;;;;;18.77;3.05;;;6.20;75.00;;;;;;6273199;22;20022;-77
2022/01/19 20:16:31;;;;;;;21.88;3.42;;;6.20;75.10;;;;;;6249707;22;20023;-77
2022/01/19 20:18:57;;;;;;;17.30;3.13;;;6.20;75.00;;;;;;6283225;22;20561;-77
2022/01/19 20:21:23;;;;;;;14.30;3.70;;;6.20;74.80;;;;;;6262146;22;20037;-78
2022/01/19 20:23:51;;;;;;;14.77;3.63;;;6.10;74.70;;;;;;6258287;22;20004;-78
2022/01/19 20:26:17;;;;;;;14.88;2.63;;;6.50;74.90;;;;;;6273005;22;20438;-78
2022/01/19 20:28:43;;;;;;;15.15;2.88;;;6.00;74.60;;;;;;6273918;22;20057;-78
2022/01/19 20:31:10;;;;;;;13.98;2.75;;;6.00;74.50;;;;;;6273303;22;20015;-78
2022/01/19 20:33:36;;;;;;;12.77;2.95;;;6.10;75.00;;;;;;6275123;22;20110;-79
2022/01/19 20:36:07;;;;;;;19.35;3.75;;;5.90;74.50;;;;;;6246389;22;20047;-78
2022/01/19 20:38:40;;;;;;;16.35;2.95;;;5.90;74.50;;;;;;6246246;22;20031;-79
2022/01/19 20:41:08;;;;;;;20.85;3.30;;;5.80;74.40;;;;;;6273962;22;20019;-78
2022/01/19 20:43:35;;;;;;;17.38;2.85;;;5.80;74.40;;;;;;6245563;22;20363;-80
2022/01/19 20:46:01;;;;;;;18.63;4.32;;;5.80;74.40;;;;;;6272882;22;20530;-78
2022/01/19 20:48:26;;;;;;;14.23;3.25;;;5.70;74.40;;;;;;6270636;22;20039;-78
2022/01/19 20:50:52;;;;;;;15.38;2.90;;;5.70;74.70;;;;;;6272894;22;20066;-79
2022/01/19 20:53:18;;;;;;;13.18;2.83;;;5.70;74.90;;;;;;6273972;22;20016;-79
2022/01/19 20:55:44;;;;;;;17.33;3.13;;;5.60;75.30;;;;;;6273053;22;20019;-79
2022/01/19 20:58:12;;;;;;;15.95;2.63;;;5.60;75.00;;;;;;6272954;22;20023;-78
2022/01/19 21:00:39;;;;;;;14.50;2.45;;;5.70;75.10;;;;;;6272511;22;20034;-78
2022/01/19 21:03:06;;;;;;;16.38;2.53;;;5.60;75.20;;;;;;6274047;22;20031;-78
2022/01/19 21:05:34;;;;;;;18.45;3.30;;;5.60;75.30;;;;;;6272409;22;20011;-78
2022/01/19 21:08:00;;;;;;;15.40;2.60;;;5.60;75.40;;;;;;6272451;22;20097;-78
2022/01/19 21:10:27;;;;;;;14.30;2.38;;;5.60;75.50;;;;;;6270177;22;20101;-78
2022/01/19 21:12:52;;;;;;;15.00;3.25;;;5.60;75.60;;;;;;6273148;22;20031;-79
2022/01/19 21:15:18;;;;;;;13.68;2.72;;;5.50;75.50;;;;;;6273405;22;20094;-78
2022/01/19 21:17:45;;;;;;;13.80;2.58;;;5.50;75.60;;;;;;6244373;22;20023;-78
2022/01/19 21:20:13;;;;;;;14.48;3.20;;;5.50;75.60;;;;;;6272814;22;20020;-78
2022/01/19 21:22:39;;;;;;;13.52;3.80;;;5.50;75.60;;;;;;6273306;22;20384;-76
2022/01/19 21:25:05;;;;;;;16.63;4.18;;;5.50;75.70;;;;;;6243867;22;20099;-77
2022/01/19 21:27:31;;;;;;;11.60;2.72;;;5.40;75.70;;;;;;6245756;22;20024;-78
2022/01/19 21:29:57;;;;;;;15.13;2.80;;;5.40;75.70;;;;;;6244087;22;20024;-77
2022/01/19 21:32:23;;;;;;;14.13;2.90;;;5.40;75.70;;;;;;6244276;22;20031;-78
2022/01/19 21:34:49;;;;;;;13.63;3.03;;;5.40;75.80;;;;;;6267897;22;20016;-77
2022/01/19 21:37:17;;;;;;;15.02;3.35;;;5.40;75.90;;;;;;6272555;22;20031;-77
2022/01/19 21:39:42;;;;;;;18.65;3.58;;;5.40;75.90;;;;;;6243924;22;20068;-77
2022/01/19 21:42:08;;;;;;;14.63;2.70;;;5.40;76.00;;;;;;6244785;22;20111;-77
2022/01/19 21:44:33;;;;;;;19.40;4.22;;;5.40;76.00;;;;;;6243969;22;20048;-77
2022/01/19 21:46:59;;;;;;;14.80;2.15;;;5.30;76.00;;;;;;6245489;22;20026;-79
2022/01/19 21:49:27;;;;;;;13.90;3.55;;;5.30;76.00;;;;;;6273012;22;20046;-78
2022/01/19 21:51:53;;;;;;;13.10;2.58;;;5.50;76.20;;;;;;6272520;22;20055;-78
2022/01/19 21:54:19;;;;;;;16.23;2.85;;;5.30;76.20;;;;;;6272320;22;20023;-78
2022/01/19 21:56:45;;;;;;;18.50;3.88;;;5.30;76.30;;;;;;6271451;22;20016;-78
2022/01/19 21:59:11;;;;;;;26.88;4.95;;;5.30;76.40;;;;;;6273070;22;20016;-78
2022/01/19 22:01:37;;;;;;;22.25;4.97;;;5.30;76.50;;;;;;6273246;22;20657;-77
2022/01/19 22:04:03;;;;;;;21.75;3.70;;;5.30;76.90;;;;;;6276675;22;20027;-77
2022/01/19 22:06:28;;;;;;;20.20;4.22;;;5.30;76.50;;;;;;6277800;22;20486;-77
2022/01/19 22:08:59;;;;;;;31.27;4.97;;;5.30;76.60;;;;;;6277171;22;20450;-84
2022/01/19 22:11:24;;;;;;;23.45;4.70;;;5.30;77.20;;;;;;6276547;22;20066;-78
2022/01/19 22:13:50;;;;;;;19.95;3.05;;;5.30;77.00;;;;;;6274131;22;20019;-77